createdAt,value
2017-12-31T00:01:19.418Z,30.57
2017-12-31T00:03:45.820Z,28.30
2017-12-31T00:06:12.987Z,23.43
2017-12-31T00:08:39.355Z,29.23
2017-12-31T00:11:06.470Z,37.73
2017-12-31T00:13:32.846Z,36.13
2017-12-31T00:15:59.262Z,33.90
2017-12-31T00:18:25.694Z,17.17
2017-12-31T00:20:52.047Z,30.67
2017-12-31T00:23:18.433Z,24.57
2017-12-31T00:25:45.533Z,19.40
2017-12-31T00:28:11.839Z,28.13
2017-12-31T00:30:38.957Z,21.97
2017-12-31T00:33:05.908Z,13.33
2017-12-31T00:35:32.305Z,31.00
2017-12-31T00:37:59.417Z,34.63
2017-12-31T00:40:25.797Z,18.87
2017-12-31T00:42:52.967Z,17.20
2017-12-31T00:45:19.349Z,35.77
2017-12-31T00:47:45.721Z,23.50
2017-12-31T00:50:12.125Z,19.80
2017-12-31T00:52:38.581Z,29.17
2017-12-31T00:55:05.545Z,22.60
2017-12-31T00:57:31.957Z,24.00
2017-12-31T00:59:58.374Z,23.93
2017-12-31T01:02:25.583Z,21.70
2017-12-31T01:04:52.357Z,19.63
2017-12-31T01:07:18.747Z,15.53
2017-12-31T01:09:45.119Z,20.73
2017-12-31T01:12:11.494Z,32.13
2017-12-31T01:14:37.896Z,19.70
2017-12-31T01:17:05.803Z,21.23
2017-12-31T01:19:33.133Z,24.37
2017-12-31T01:21:59.539Z,9.23
2017-12-31T01:24:26.639Z,17.40
2017-12-31T01:26:53.019Z,19.60
2017-12-31T01:29:19.377Z,13.40
2017-12-31T01:31:45.861Z,18.83
2017-12-31T01:34:12.950Z,7.53
2017-12-31T01:36:40.129Z,12.57
2017-12-31T01:39:06.642Z,8.87
2017-12-31T01:41:33.747Z,13.30
2017-12-31T01:44:00.120Z,12.53
2017-12-31T01:46:26.551Z,12.80
2017-12-31T01:49:01.863Z,13.93
2017-12-31T01:51:28.243Z,4.70
2017-12-31T01:53:54.588Z,11.23
2017-12-31T01:56:20.951Z,7.30
2017-12-31T01:58:47.402Z,3.37
2017-12-31T02:01:13.844Z,12.30
2017-12-31T02:03:40.151Z,8.93
2017-12-31T02:06:07.302Z,6.20
2017-12-31T02:08:33.721Z,3.93
2017-12-31T02:11:00.107Z,5.60
2017-12-31T02:13:26.446Z,5.63
2017-12-31T02:15:52.799Z,8.93
2017-12-31T02:18:19.226Z,5.60
2017-12-31T02:20:45.636Z,5.60
2017-12-31T02:23:12.036Z,1.83
2017-12-31T02:25:38.371Z,5.73
2017-12-31T02:28:05.308Z,9.20
2017-12-31T02:30:31.726Z,7.47
2017-12-31T02:32:58.363Z,11.60
2017-12-31T02:35:25.424Z,4.70
2017-12-31T02:37:51.815Z,8.80
2017-12-31T02:40:18.135Z,6.20
2017-12-31T02:42:45.195Z,6.37
2017-12-31T02:45:11.563Z,3.40
2017-12-31T02:47:38.031Z,4.47
2017-12-31T02:50:04.890Z,3.07
2017-12-31T02:52:32.011Z,5.10
2017-12-31T02:54:58.348Z,4.77
2017-12-31T02:57:24.711Z,6.17
2017-12-31T02:59:51.094Z,6.00
2017-12-31T03:02:17.468Z,4.30
2017-12-31T03:04:43.863Z,3.33
2017-12-31T03:07:10.195Z,2.00
2017-12-31T03:09:36.534Z,1.93
2017-12-31T03:12:03.370Z,5.70
2017-12-31T03:14:29.829Z,4.50
2017-12-31T03:16:56.183Z,8.50
2017-12-31T03:19:22.658Z,7.33
2017-12-31T03:21:49.790Z,7.90
2017-12-31T03:24:16.251Z,9.37
2017-12-31T03:26:42.574Z,7.50
2017-12-31T03:29:08.915Z,10.00
2017-12-31T03:31:36.802Z,5.53
2017-12-31T03:34:03.932Z,10.97
2017-12-31T03:36:31.843Z,13.50
2017-12-31T03:38:58.195Z,7.60
2017-12-31T03:41:24.514Z,12.07
2017-12-31T03:43:50.863Z,4.83
2017-12-31T03:46:17.187Z,14.13
2017-12-31T03:48:44.364Z,17.10
2017-12-31T03:51:10.715Z,30.93
2017-12-31T03:53:37.053Z,19.83
2017-12-31T03:56:05.729Z,21.93
2017-12-31T03:58:32.074Z,21.07
2017-12-31T04:00:58.550Z,22.47
2017-12-31T04:03:24.931Z,23.20
2017-12-31T04:05:51.619Z,15.17
2017-12-31T04:08:17.939Z,19.73
2017-12-31T04:10:44.279Z,12.17
2017-12-31T04:13:10.662Z,24.83
2017-12-31T04:15:37.132Z,22.03
2017-12-31T04:18:04.555Z,28.23
2017-12-31T04:20:38.548Z,34.63
2017-12-31T04:23:05.532Z,23.37
2017-12-31T04:25:31.891Z,27.77
2017-12-31T04:27:58.236Z,16.13
2017-12-31T04:30:25.321Z,17.23
2017-12-31T04:32:51.691Z,17.57
2017-12-31T04:35:18.203Z,21.03
2017-12-31T04:37:44.567Z,22.53
2017-12-31T04:40:11.699Z,17.53
2017-12-31T04:42:38.055Z,19.67
2017-12-31T04:45:04.402Z,12.03
2017-12-31T04:47:30.779Z,19.83
2017-12-31T04:49:57.287Z,22.33
2017-12-31T04:52:24.394Z,33.57
2017-12-31T04:54:50.781Z,12.70
2017-12-31T04:57:17.099Z,20.53
2017-12-31T04:59:43.478Z,20.70
2017-12-31T05:02:09.815Z,21.37
2017-12-31T05:04:36.288Z,24.20
2017-12-31T05:07:03.641Z,34.97
2017-12-31T05:09:30.734Z,9.57
2017-12-31T05:11:57.067Z,16.13
2017-12-31T05:14:23.399Z,11.13
2017-12-31T05:16:50.608Z,32.60
2017-12-31T05:19:16.943Z,24.20
2017-12-31T05:21:43.323Z,11.40
2017-12-31T05:24:09.717Z,16.90
2017-12-31T05:26:36.084Z,14.90
2017-12-31T05:29:02.413Z,25.33
2017-12-31T05:31:28.775Z,14.60
2017-12-31T05:33:55.152Z,19.10
2017-12-31T05:36:21.627Z,14.43
2017-12-31T05:38:48.013Z,13.23
2017-12-31T05:41:14.331Z,12.97
2017-12-31T05:43:40.684Z,9.50
2017-12-31T05:46:07.527Z,14.20
2017-12-31T05:48:33.938Z,10.73
2017-12-31T05:51:00.993Z,15.37
2017-12-31T05:53:27.476Z,12.37
2017-12-31T05:55:53.999Z,12.40
2017-12-31T05:58:21.086Z,12.07
2017-12-31T06:00:48.947Z,9.07
2017-12-31T06:03:15.388Z,12.40
2017-12-31T06:05:41.760Z,14.73
2017-12-31T06:08:08.123Z,10.80
2017-12-31T06:10:34.494Z,10.53
2017-12-31T06:13:01.764Z,17.93
2017-12-31T06:15:28.131Z,13.90
2017-12-31T06:17:54.460Z,12.20
2017-12-31T06:20:21.567Z,11.60
2017-12-31T06:22:47.978Z,13.33
2017-12-31T06:25:14.313Z,14.40
2017-12-31T06:27:40.659Z,6.63
2017-12-31T06:30:07.777Z,6.77
2017-12-31T06:32:35.616Z,11.53
2017-12-31T06:35:02.046Z,13.40
2017-12-31T06:37:28.410Z,11.30
2017-12-31T06:39:54.755Z,8.40
2017-12-31T06:42:21.137Z,10.67
2017-12-31T06:44:47.519Z,10.80
2017-12-31T06:47:13.915Z,9.87
2017-12-31T06:49:40.292Z,12.77
2017-12-31T06:52:07.181Z,5.40
2017-12-31T06:54:33.535Z,12.50
2017-12-31T06:57:00.131Z,8.20
2017-12-31T06:59:26.478Z,13.33
2017-12-31T07:01:53.851Z,9.73
2017-12-31T07:04:20.238Z,14.77
2017-12-31T07:06:46.655Z,9.60
2017-12-31T07:09:13.108Z,13.83
2017-12-31T07:11:39.834Z,6.43
2017-12-31T07:14:06.483Z,5.53
2017-12-31T07:16:32.961Z,8.30
2017-12-31T07:18:59.372Z,7.90
2017-12-31T07:21:27.816Z,15.53
2017-12-31T07:23:54.379Z,9.83
2017-12-31T07:26:20.890Z,7.30
2017-12-31T07:28:47.407Z,8.83
2017-12-31T07:31:14.012Z,7.50
2017-12-31T07:33:41.498Z,12.13
2017-12-31T07:36:08.120Z,9.33
2017-12-31T07:38:34.847Z,9.37
2017-12-31T07:41:01.314Z,4.53
2017-12-31T07:43:27.956Z,12.53
2017-12-31T07:45:54.388Z,4.27
2017-12-31T07:48:20.855Z,7.10
2017-12-31T07:50:48.888Z,8.63
2017-12-31T07:53:15.527Z,7.93
2017-12-31T07:55:42.725Z,11.23
2017-12-31T07:58:09.174Z,5.07
2017-12-31T08:00:35.635Z,21.23
2017-12-31T08:03:02.039Z,13.33
2017-12-31T08:05:28.473Z,6.03
2017-12-31T08:07:54.879Z,5.27
2017-12-31T08:10:22.116Z,5.90
2017-12-31T08:12:49.295Z,8.07
2017-12-31T08:15:15.776Z,8.83
2017-12-31T08:17:42.967Z,12.90
2017-12-31T08:20:09.435Z,10.20
2017-12-31T08:22:36.153Z,7.50
2017-12-31T08:25:02.923Z,8.70
2017-12-31T08:27:29.357Z,10.00
2017-12-31T08:29:56.479Z,13.63
2017-12-31T08:32:22.883Z,7.33
2017-12-31T08:34:49.419Z,12.80
2017-12-31T08:37:15.870Z,9.13
2017-12-31T08:39:42.357Z,9.80
2017-12-31T08:42:08.747Z,12.57
2017-12-31T08:44:36.287Z,16.83
2017-12-31T08:47:02.874Z,6.30
2017-12-31T08:49:29.324Z,5.50
2017-12-31T08:51:55.690Z,3.43
2017-12-31T08:54:22.111Z,8.90
2017-12-31T08:56:49.299Z,14.50
2017-12-31T08:59:15.951Z,6.60
2017-12-31T09:01:42.464Z,6.10
2017-12-31T09:04:09.135Z,7.93
2017-12-31T09:06:35.631Z,6.23
2017-12-31T09:09:02.029Z,3.90
2017-12-31T09:11:28.414Z,5.50
2017-12-31T09:13:55.591Z,8.60
2017-12-31T09:16:23.558Z,5.37
2017-12-31T09:18:49.928Z,8.43
2017-12-31T09:21:16.318Z,9.50
2017-12-31T09:23:42.698Z,7.70
2017-12-31T09:26:09.139Z,5.13
2017-12-31T09:28:35.631Z,7.93
2017-12-31T09:31:02.376Z,8.13
2017-12-31T09:33:30.588Z,10.53
2017-12-31T09:35:57.074Z,14.23
2017-12-31T09:38:23.535Z,6.43
2017-12-31T09:40:49.952Z,18.20
2017-12-31T09:43:16.382Z,7.93
2017-12-31T09:45:44.523Z,3.33
2017-12-31T09:48:11.115Z,17.90
2017-12-31T09:50:37.559Z,9.40
2017-12-31T09:53:04.316Z,6.50
2017-12-31T09:55:30.698Z,4.30
2017-12-31T09:57:57.140Z,10.50
2017-12-31T10:00:23.531Z,3.60
2017-12-31T10:02:50.043Z,5.47
2017-12-31T10:05:16.467Z,6.10
2017-12-31T10:07:42.872Z,4.70
2017-12-31T10:10:09.393Z,7.70
2017-12-31T10:12:36.042Z,9.67
2017-12-31T10:15:03.519Z,8.77
2017-12-31T10:17:29.923Z,9.10
2017-12-31T10:19:56.339Z,9.43
2017-12-31T10:22:22.723Z,8.37
2017-12-31T10:24:49.348Z,4.87
2017-12-31T10:27:16.011Z,7.20
2017-12-31T10:29:42.423Z,4.07
2017-12-31T10:32:08.943Z,5.63
2017-12-31T10:34:35.324Z,6.37
2017-12-31T10:37:02.537Z,5.83
2017-12-31T10:39:29.367Z,3.63
2017-12-31T10:41:55.779Z,6.93
2017-12-31T10:44:22.157Z,4.30
2017-12-31T10:46:49.345Z,3.77
2017-12-31T10:49:15.757Z,4.30
2017-12-31T10:51:42.231Z,6.13
2017-12-31T10:54:08.676Z,4.47
2017-12-31T10:56:35.140Z,18.67
2017-12-31T10:59:02.491Z,5.33
2017-12-31T11:01:29.636Z,6.53
2017-12-31T11:03:56.235Z,11.63
2017-12-31T11:06:24.164Z,8.30
2017-12-31T11:08:50.588Z,6.70
2017-12-31T11:11:18.568Z,4.97
2017-12-31T11:13:45.046Z,5.13
2017-12-31T11:16:11.850Z,4.30
2017-12-31T11:18:39.080Z,4.57
2017-12-31T11:21:05.467Z,3.90
2017-12-31T11:26:24.599Z,2.23
2017-12-31T11:28:51.064Z,5.93
2017-12-31T11:31:17.463Z,7.50
2017-12-31T11:33:44.008Z,4.73
2017-12-31T11:36:10.433Z,6.73
2017-12-31T11:38:36.866Z,3.47
2017-12-31T11:41:03.672Z,4.43
2017-12-31T11:43:30.119Z,6.93
2017-12-31T11:45:56.552Z,8.70
2017-12-31T11:48:23.015Z,3.73
2017-12-31T11:50:49.451Z,4.53
2017-12-31T11:53:15.888Z,7.20
2017-12-31T11:55:42.375Z,4.43
2017-12-31T11:58:09.484Z,3.80
2017-12-31T12:00:35.978Z,8.97
2017-12-31T12:03:02.471Z,3.47
2017-12-31T12:05:30.675Z,5.70
2017-12-31T12:07:57.144Z,7.40
2017-12-31T12:10:23.555Z,11.90
2017-12-31T12:12:50.745Z,7.00
2017-12-31T12:15:17.151Z,4.43
2017-12-31T12:17:43.663Z,3.53
2017-12-31T12:20:10.802Z,13.17
2017-12-31T12:22:38.099Z,6.53
2017-12-31T12:25:04.552Z,2.80
2017-12-31T12:27:31.021Z,3.23
2017-12-31T12:29:57.555Z,4.20
2017-12-31T12:32:24.090Z,5.93
2017-12-31T12:34:52.223Z,9.80
2017-12-31T12:37:18.592Z,3.33
2017-12-31T12:39:45.007Z,4.90
2017-12-31T12:42:11.696Z,8.07
2017-12-31T12:44:38.143Z,3.10
2017-12-31T12:47:04.875Z,6.87
2017-12-31T12:49:31.355Z,4.80
2017-12-31T12:51:57.934Z,4.70
2017-12-31T12:54:24.343Z,9.27
2017-12-31T12:56:51.513Z,7.50
2017-12-31T12:59:18.655Z,7.93
2017-12-31T13:01:46.075Z,6.03
2017-12-31T13:04:12.534Z,3.90
2017-12-31T13:06:39.159Z,3.37
2017-12-31T13:09:05.523Z,6.87
2017-12-31T13:11:32.397Z,8.97
2017-12-31T13:13:58.821Z,2.97
2017-12-31T13:16:25.980Z,4.00
2017-12-31T13:18:52.370Z,3.87
2017-12-31T13:21:19.092Z,1.67
2017-12-31T13:23:45.437Z,1.77
2017-12-31T13:26:11.936Z,10.33
2017-12-31T13:28:38.358Z,4.10
2017-12-31T13:31:04.791Z,5.10
2017-12-31T13:33:33.211Z,2.90
2017-12-31T13:35:59.667Z,4.67
2017-12-31T13:38:27.476Z,4.53
2017-12-31T13:40:54.631Z,7.60
2017-12-31T13:43:21.047Z,5.67
2017-12-31T13:45:47.493Z,6.33
2017-12-31T13:48:14.651Z,3.73
2017-12-31T13:50:41.158Z,6.00
2017-12-31T13:53:07.592Z,8.10
2017-12-31T13:55:35.010Z,4.60
2017-12-31T13:58:01.677Z,5.93
2017-12-31T14:00:28.132Z,8.33
2017-12-31T14:02:54.576Z,7.20
2017-12-31T14:05:21.044Z,5.97
2017-12-31T14:07:47.527Z,10.13
2017-12-31T14:10:15.443Z,6.20
2017-12-31T14:12:45.584Z,1.60
2017-12-31T14:15:14.129Z,3.53
2017-12-31T14:17:40.529Z,6.33
2017-12-31T14:20:07.436Z,2.77
2017-12-31T14:22:33.815Z,4.47
2017-12-31T14:25:00.281Z,6.63
2017-12-31T14:27:29.351Z,3.37
2017-12-31T14:29:55.799Z,7.20
2017-12-31T14:32:22.242Z,2.30
2017-12-31T14:34:48.736Z,2.83
2017-12-31T14:37:15.981Z,2.50
2017-12-31T14:39:42.362Z,3.73
2017-12-31T14:42:08.820Z,6.70
2017-12-31T14:44:35.328Z,3.00
2017-12-31T14:47:02.724Z,2.50
2017-12-31T14:49:31.727Z,6.47
2017-12-31T14:51:58.151Z,2.57
2017-12-31T14:54:25.321Z,4.37
2017-12-31T14:56:53.715Z,7.93
2017-12-31T14:59:20.204Z,5.63
2017-12-31T15:01:46.584Z,4.37
2017-12-31T15:04:12.981Z,2.00
2017-12-31T15:06:39.685Z,3.03
2017-12-31T15:09:06.123Z,2.47
2017-12-31T15:11:32.630Z,2.57
2017-12-31T15:13:59.096Z,4.90
2017-12-31T15:16:25.573Z,1.90
2017-12-31T15:18:53.743Z,1.80
2017-12-31T15:21:22.374Z,5.40
2017-12-31T15:23:48.833Z,2.80
2017-12-31T15:26:15.381Z,2.53
2017-12-31T15:28:42.792Z,1.60
2017-12-31T15:31:10.127Z,2.30
2017-12-31T15:33:36.634Z,3.40
2017-12-31T15:36:03.292Z,3.03
2017-12-31T15:38:29.936Z,2.50
2017-12-31T15:40:56.487Z,3.50
2017-12-31T15:43:22.902Z,5.70
2017-12-31T15:45:49.359Z,2.20
2017-12-31T15:48:16.210Z,2.00
2017-12-31T15:50:43.534Z,5.20
2017-12-31T15:53:10.163Z,3.60
2017-12-31T15:55:36.739Z,1.53
2017-12-31T15:58:03.689Z,3.60
2017-12-31T16:00:30.222Z,2.50
2017-12-31T16:02:56.569Z,3.93
2017-12-31T16:05:22.987Z,4.93
2017-12-31T16:07:49.384Z,5.87
2017-12-31T16:10:15.850Z,2.47
2017-12-31T16:12:43.017Z,5.83
2017-12-31T16:15:09.389Z,3.47
2017-12-31T16:17:35.848Z,4.30
2017-12-31T16:20:02.231Z,2.83
2017-12-31T16:22:29.509Z,4.13
2017-12-31T16:24:55.909Z,3.83
2017-12-31T16:27:22.263Z,5.37
2017-12-31T16:29:48.598Z,1.77
2017-12-31T16:32:14.947Z,4.50
2017-12-31T16:34:41.324Z,2.80
2017-12-31T16:37:08.451Z,5.43
2017-12-31T16:39:35.725Z,3.10
2017-12-31T16:42:02.339Z,1.90
2017-12-31T16:44:28.731Z,3.60
2017-12-31T16:46:55.975Z,4.40
2017-12-31T16:49:22.382Z,3.33
2017-12-31T16:51:49.101Z,2.50
2017-12-31T16:54:15.609Z,3.27
2017-12-31T16:56:42.099Z,2.50
2017-12-31T16:59:08.444Z,6.70
2017-12-31T17:01:34.806Z,2.40
2017-12-31T17:04:01.158Z,6.60
2017-12-31T17:06:27.519Z,7.60
2017-12-31T17:08:53.823Z,4.03
2017-12-31T17:11:20.243Z,7.10
2017-12-31T17:13:47.360Z,5.23
2017-12-31T17:16:13.923Z,2.67
2017-12-31T17:18:40.430Z,5.03
2017-12-31T17:21:06.759Z,4.80
2017-12-31T17:23:33.099Z,2.67
2017-12-31T17:25:59.585Z,2.90
2017-12-31T17:28:25.918Z,3.20
2017-12-31T17:30:52.283Z,5.90
2017-12-31T17:33:19.447Z,1.87
2017-12-31T17:35:45.850Z,6.13
2017-12-31T17:38:12.183Z,5.90
2017-12-31T17:40:38.628Z,6.80
2017-12-31T17:43:05.407Z,3.40
2017-12-31T17:45:31.787Z,5.43
2017-12-31T17:47:58.166Z,3.33
2017-12-31T17:50:24.952Z,3.53
2017-12-31T17:52:52.497Z,2.50
2017-12-31T17:55:18.933Z,5.87
2017-12-31T17:57:45.411Z,5.30
2017-12-31T18:00:11.922Z,5.53
2017-12-31T18:02:38.333Z,4.20
2017-12-31T18:05:05.020Z,4.93
2017-12-31T18:07:31.435Z,6.53
2017-12-31T18:09:57.755Z,6.07
2017-12-31T18:12:24.120Z,2.10
2017-12-31T18:14:51.207Z,10.10
2017-12-31T18:17:17.619Z,2.50
2017-12-31T18:19:43.947Z,5.80
2017-12-31T18:22:10.339Z,8.17
2017-12-31T18:24:36.793Z,4.90
2017-12-31T18:27:03.992Z,6.93
2017-12-31T18:29:31.143Z,7.13
2017-12-31T18:31:57.735Z,3.70
2017-12-31T18:34:24.863Z,3.07
2017-12-31T18:36:51.902Z,4.07
2017-12-31T18:39:18.259Z,5.80
2017-12-31T18:41:44.604Z,1.50
2017-12-31T18:44:11.061Z,5.53
2017-12-31T18:46:38.225Z,3.10
2017-12-31T18:49:04.667Z,1.90
2017-12-31T18:51:31.084Z,2.87
2017-12-31T18:53:57.485Z,1.30
2017-12-31T18:56:23.907Z,3.80
2017-12-31T18:58:51.788Z,5.60
2017-12-31T19:01:18.151Z,2.60
2017-12-31T19:03:45.309Z,4.10
2017-12-31T19:06:11.879Z,3.00
2017-12-31T19:08:38.675Z,1.20
2017-12-31T19:11:05.194Z,1.57
2017-12-31T19:13:31.891Z,3.20
2017-12-31T19:15:58.322Z,0.80
2017-12-31T19:18:24.713Z,1.10
2017-12-31T19:20:51.063Z,2.83
2017-12-31T19:23:17.577Z,1.30
2017-12-31T19:25:44.686Z,2.00
2017-12-31T19:28:11.139Z,1.23
2017-12-31T19:30:37.519Z,2.03
2017-12-31T19:33:03.968Z,2.23
2017-12-31T19:35:30.366Z,1.53
2017-12-31T19:37:56.771Z,1.87
2017-12-31T19:40:23.944Z,1.80
2017-12-31T19:42:50.319Z,3.67
2017-12-31T19:45:16.675Z,1.10
2017-12-31T19:47:43.075Z,0.83
2017-12-31T19:50:10.185Z,1.67
2017-12-31T19:52:36.610Z,1.17
2017-12-31T19:55:03.478Z,2.83
2017-12-31T19:57:29.990Z,3.50
2017-12-31T19:59:57.119Z,1.10
2017-12-31T20:02:24.223Z,1.20
2017-12-31T20:04:50.690Z,1.57
2017-12-31T20:07:17.151Z,1.10
2017-12-31T20:09:45.070Z,0.80
2017-12-31T20:12:12.199Z,1.30
2017-12-31T20:14:38.543Z,0.90
2017-12-31T20:17:05.469Z,1.07
2017-12-31T20:19:31.901Z,1.27
2017-12-31T20:21:58.269Z,3.60
2017-12-31T20:24:24.675Z,4.63
2017-12-31T20:26:51.063Z,1.43
2017-12-31T20:29:18.324Z,0.90
2017-12-31T20:31:45.469Z,1.77
2017-12-31T20:34:11.951Z,2.80
2017-12-31T20:36:38.339Z,1.43
2017-12-31T20:39:05.727Z,1.30
2017-12-31T20:41:33.170Z,1.50
2017-12-31T20:43:59.523Z,2.30
2017-12-31T20:46:25.867Z,2.03
2017-12-31T20:48:52.192Z,1.17
2017-12-31T20:51:18.607Z,1.80
2017-12-31T20:53:44.935Z,1.10
2017-12-31T20:56:12.106Z,2.57
2017-12-31T20:58:38.462Z,1.17
2017-12-31T21:01:05.377Z,0.83
2017-12-31T21:03:31.707Z,2.30
2017-12-31T21:05:58.133Z,3.60
2017-12-31T21:08:24.567Z,1.97
2017-12-31T21:10:50.992Z,4.93
2017-12-31T21:13:17.391Z,2.40
2017-12-31T21:15:43.870Z,1.20
2017-12-31T21:18:10.226Z,4.60
2017-12-31T21:20:37.323Z,4.80
2017-12-31T21:23:03.770Z,2.07
2017-12-31T21:25:30.107Z,3.80
2017-12-31T21:27:56.522Z,2.30
2017-12-31T21:30:23.685Z,2.60
2017-12-31T21:32:50.943Z,1.87
2017-12-31T21:35:18.023Z,1.50
2017-12-31T21:37:44.451Z,1.83
2017-12-31T21:40:11.574Z,2.47
2017-12-31T21:42:37.928Z,2.50
2017-12-31T21:45:04.869Z,3.30
2017-12-31T21:47:32.039Z,1.97
2017-12-31T21:49:59.178Z,2.93
2017-12-31T21:52:25.583Z,1.67
2017-12-31T21:54:52.692Z,3.17
2017-12-31T21:57:19.023Z,2.67
2017-12-31T21:59:45.379Z,8.03
2017-12-31T22:02:11.874Z,2.07
2017-12-31T22:04:39.023Z,2.50
2017-12-31T22:07:05.734Z,1.80
2017-12-31T22:09:32.107Z,3.37
2017-12-31T22:11:58.483Z,4.50
2017-12-31T22:14:25.551Z,7.30
2017-12-31T22:16:52.031Z,0.97
2017-12-31T22:19:18.402Z,1.53
2017-12-31T22:21:46.274Z,2.00
2017-12-31T22:24:12.611Z,11.67
2017-12-31T22:26:39.822Z,8.13
2017-12-31T22:29:06.449Z,4.70
2017-12-31T22:31:32.801Z,10.40
2017-12-31T22:33:59.209Z,9.37
2017-12-31T22:36:25.610Z,3.13
2017-12-31T22:38:52.718Z,4.60
2017-12-31T22:41:20.615Z,3.77
2017-12-31T22:43:47.751Z,8.83
2017-12-31T22:46:14.906Z,4.27
2017-12-31T22:48:41.310Z,4.90
2017-12-31T22:51:08.391Z,5.23
2017-12-31T22:53:34.757Z,4.23
2017-12-31T22:56:01.111Z,3.37
2017-12-31T22:58:27.499Z,1.00
2017-12-31T23:00:53.969Z,2.67
2017-12-31T23:03:20.427Z,11.83
2017-12-31T23:05:46.841Z,26.83
2017-12-31T23:08:13.262Z,5.40
2017-12-31T23:10:41.116Z,98.87
2017-12-31T23:13:08.227Z,23.40
2017-12-31T23:15:34.669Z,78.83
2017-12-31T23:18:01.032Z,48.47
2017-12-31T23:20:27.403Z,16.93
2017-12-31T23:22:54.520Z,32.43
2017-12-31T23:25:21.082Z,18.20
2017-12-31T23:27:47.531Z,21.70
2017-12-31T23:30:13.950Z,46.47
2017-12-31T23:32:41.028Z,8.80
2017-12-31T23:35:07.383Z,9.63
2017-12-31T23:37:33.746Z,34.23
2017-12-31T23:40:00.901Z,9.13
2017-12-31T23:42:27.321Z,15.07
2017-12-31T23:44:53.699Z,12.33
2017-12-31T23:47:20.086Z,8.50
2017-12-31T23:49:48.007Z,15.43
2017-12-31T23:52:15.151Z,18.93
2017-12-31T23:54:41.547Z,18.97
2017-12-31T23:57:07.939Z,9.97
2017-12-31T23:59:35.859Z,14.57
